Time,TemperatureF,DewpointF,PressureIn,WindDirection,WindDirectionDegrees,WindSpeedMPH,WindSpeedGustMPH,Humidity,HourlyPrecipIn,Conditions,Clouds,dailyrainin,SoftwareType,DateUTC
2013-02-23 00:00:00,28.7,28.0,29.81,WSW,244,1.0,0.0,97,0.00,CLR,,0.00,WeatherDisplay:10.37,2013-02-23 05:00:00,
2013-02-23 00:01:00,28.7,28.0,29.81,WSW,248,5.0,5.0,97,0.00,CLR,,0.00,WeatherDisplay:10.37,2013-02-23 05:01:00,
2013-02-23 00:06:00,28.9,28.2,29.81,WSW,245,4.6,4.6,97,0.00,CLR,,0.00,WeatherDisplay:10.37,2013-02-23 05:06:00,
2013-02-23 00:08:00,29.0,28.0,29.81,WSW,242,3.0,3.0,96,0.00,CLR,,0.00,WeatherDisplay:10.37,2013-02-23 05:08:00,
2013-02-23 00:13:00,29.2,28.5,29.81,West,261,4.0,4.0,97,0.00,CLR,,0.00,WeatherDisplay:10.37,2013-02-23 05:13:00,
2013-02-23 00:19:00,29.3,28.6,29.81,West,263,6.9,6.9,97,0.00,CLR,,0.00,WeatherDisplay:10.37,2013-02-23 05:19:00,
2013-02-23 00:24:00,29.4,28.7,29.81,WSW,250,4.6,4.6,97,0.00,CLR,,0.00,WeatherDisplay:10.37,2013-02-23 05:24:00,
2013-02-23 00:29:00,29.5,28.8,29.81,WSW,256,4.6,4.6,97,0.00,CLR,,0.00,WeatherDisplay:10.37,2013-02-23 05:29:00,
2013-02-23 00:34:00,29.6,28.9,29.81,West,261,3.5,3.5,97,0.00,CLR,,0.00,WeatherDisplay:10.37,2013-02-23 05:34:00,
2013-02-23 00:39:00,29.7,29.0,29.81,WSW,244,9.2,9.2,97,0.00,CLR,,0.00,WeatherDisplay:10.37,2013-02-23 05:39:00,
2013-02-23 00:44:00,29.8,29.1,29.81,WSW,238,3.5,3.5,97,0.00,CLR,,0.00,WeatherDisplay:10.37,2013-02-23 05:44:00,
2013-02-23 00:49:00,29.9,29.2,29.81,WSW,253,5.0,5.0,97,0.00,CLR,,0.00,WeatherDisplay:10.37,2013-02-23 05:49:00,
2013-02-23 00:54:00,30.0,29.3,29.81,WSW,256,6.9,6.9,97,0.00,CLR,,0.00,WeatherDisplay:10.37,2013-02-23 05:54:00,
2013-02-23 00:59:00,30.1,29.4,29.81,West,267,6.9,6.9,97,0.00,CLR,,0.00,WeatherDisplay:10.37,2013-02-23 05:59:00,
2013-02-23 01:04:00,30.1,29.4,29.81,WSW,250,4.6,4.6,97,0.00,CLR,,0.00,WeatherDisplay:10.37,2013-02-23 06:04:00,
2013-02-23 01:09:00,30.2,29.5,29.81,West,259,3.0,3.0,97,0.00,CLR,,0.00,WeatherDisplay:10.37,2013-02-23 06:09:00,
2013-02-23 01:14:00,30.3,29.6,29.81,WSW,242,5.8,5.8,97,0.00,CLR,,0.00,WeatherDisplay:10.37,2013-02-23 06:14:00,
2013-02-23 01:19:00,30.3,29.6,29.80,WSW,258,3.5,3.5,97,0.00,CLR,,0.00,WeatherDisplay:10.37,2013-02-23 06:19:00,
2013-02-23 01:25:00,30.3,29.6,29.80,WSW,256,3.5,3.5,97,0.00,CLR,,0.00,WeatherDisplay:10.37,2013-02-23 06:25:00,
2013-02-23 01:30:00,30.4,29.7,29.80,WSW,255,3.5,3.5,97,0.00,CLR,,0.00,WeatherDisplay:10.37,2013-02-23 06:30:00,
2013-02-23 01:35:00,30.4,29.7,29.80,WSW,243,4.6,4.6,97,0.00,CLR,,0.00,WeatherDisplay:10.37,2013-02-23 06:35:00,
2013-02-23 01:40:00,30.5,29.8,29.80,West,259,4.6,4.6,97,0.00,CLR,,0.00,WeatherDisplay:10.37,2013-02-23 06:40:00,
2013-02-23 01:45:00,30.5,29.8,29.80,West,276,3.5,3.5,97,0.00,CLR,,0.00,WeatherDisplay:10.37,2013-02-23 06:45:00,
2013-02-23 01:50:00,30.6,29.9,29.80,West,278,10.4,10.4,97,0.00,CLR,,0.00,WeatherDisplay:10.37,2013-02-23 06:50:00,
2013-02-23 01:55:00,30.6,29.9,29.80,WSW,254,3.5,3.5,97,0.00,CLR,,0.00,WeatherDisplay:10.37,2013-02-23 06:55:00,
2013-02-23 02:00:00,30.6,29.9,29.80,West,281,6.9,6.9,97,0.00,CLR,,0.00,WeatherDisplay:10.37,2013-02-23 07:00:00,
2013-02-23 02:06:00,30.6,29.9,29.80,WSW,256,5.8,5.8,97,0.00,CLR,,0.00,WeatherDisplay:10.37,2013-02-23 07:06:00,
2013-02-23 02:12:00,30.6,29.9,29.80,West,272,4.6,4.6,97,0.00,CLR,,0.00,WeatherDisplay:10.37,2013-02-23 07:12:00,
2013-02-23 02:17:00,30.7,29.7,29.80,West,275,5.0,5.0,96,0.00,CLR,,0.00,WeatherDisplay:10.37,2013-02-23 07:17:00,
2013-02-23 02:22:00,30.7,29.7,29.80,West,265,2.3,2.3,96,0.00,CLR,,0.00,WeatherDisplay:10.37,2013-02-23 07:22:00,
2013-02-23 02:27:00,30.7,29.7,29.80,West,268,5.0,5.0,96,0.00,CLR,,0.00,WeatherDisplay:10.37,2013-02-23 07:27:00,
2013-02-23 02:32:00,30.7,29.7,29.80,West,269,10.4,10.4,96,0.00,CLR,,0.00,WeatherDisplay:10.37,2013-02-23 07:32:00,
2013-02-23 02:37:00,30.7,29.7,29.80,WNW,289,4.0,4.0,96,0.00,CLR,,0.00,WeatherDisplay:10.37,2013-02-23 07:37:00,
2013-02-23 02:42:00,30.7,29.7,29.80,West,277,2.3,2.3,96,0.00,CLR,,0.00,WeatherDisplay:10.37,2013-02-23 07:42:00,
2013-02-23 02:47:00,30.7,29.7,29.80,West,260,4.0,4.0,96,0.00,CLR,,0.00,WeatherDisplay:10.37,2013-02-23 07:47:00,
2013-02-23 02:52:00,30.7,29.7,29.80,WSW,248,6.9,6.9,96,0.00,CLR,,0.00,WeatherDisplay:10.37,2013-02-23 07:52:00,
2013-02-23 02:57:00,30.7,29.7,29.80,WSW,256,3.5,3.5,96,0.00,CLR,,0.00,WeatherDisplay:10.37,2013-02-23 07:57:00,
2013-02-23 03:02:00,30.6,29.6,29.80,WSW,246,4.6,4.6,96,0.00,CLR,,0.00,WeatherDisplay:10.37,2013-02-23 08:02:00,
2013-02-23 03:07:00,30.6,29.3,29.80,West,272,6.0,6.0,95,0.00,CLR,,0.00,WeatherDisplay:10.37,2013-02-23 08:07:00,
2013-02-23 03:12:00,30.4,29.1,29.80,WSW,240,5.8,5.8,95,0.00,CLR,,0.00,WeatherDisplay:10.37,2013-02-23 08:12:00,
2013-02-23 03:17:00,30.3,29.0,29.80,West,268,5.8,5.8,95,0.00,CLR,,0.00,WeatherDisplay:10.37,2013-02-23 08:17:00,
2013-02-23 03:22:00,30.2,28.9,29.80,WSW,257,10.4,10.4,95,0.00,CLR,,0.00,WeatherDisplay:10.37,2013-02-23 08:22:00,
2013-02-23 03:27:00,30.1,28.8,29.80,West,260,4.6,4.6,95,0.00,CLR,,0.00,WeatherDisplay:10.37,2013-02-23 08:27:00,
2013-02-23 03:32:00,30.0,28.5,29.80,West,280,4.6,4.6,94,0.00,CLR,,0.00,WeatherDisplay:10.37,2013-02-23 08:32:00,
2013-02-23 03:37:00,29.9,28.4,29.79,West,265,3.5,3.5,94,0.00,CLR,,0.00,WeatherDisplay:10.37,2013-02-23 08:37:00,
2013-02-23 03:42:00,29.8,28.3,29.79,WSW,253,4.0,4.0,94,0.00,CLR,,0.00,WeatherDisplay:10.37,2013-02-23 08:42:00,
2013-02-23 03:47:00,29.7,28.2,29.79,West,264,8.1,8.1,94,0.00,CLR,,0.00,WeatherDisplay:10.37,2013-02-23 08:47:00,
2013-02-23 03:52:00,29.6,28.1,29.79,WSW,256,9.2,9.2,94,0.00,CLR,,0.00,WeatherDisplay:10.37,2013-02-23 08:52:00,
2013-02-23 03:57:00,29.6,28.1,29.79,West,260,9.2,9.2,94,0.00,CLR,,0.00,WeatherDisplay:10.37,2013-02-23 08:57:00,
2013-02-23 04:02:00,29.5,28.0,29.79,WSW,246,8.1,8.1,94,0.00,CLR,,0.00,WeatherDisplay:10.37,2013-02-23 09:02:00,
2013-02-23 04:07:00,29.4,27.9,29.79,West,263,4.6,4.6,94,0.00,CLR,,0.00,WeatherDisplay:10.37,2013-02-23 09:07:00,
2013-02-23 04:12:00,29.3,27.5,29.79,WSW,249,6.9,6.9,93,0.00,CLR,,0.00,WeatherDisplay:10.37,2013-02-23 09:12:00,
2013-02-23 04:17:00,29.3,27.5,29.79,WSW,254,4.6,4.6,93,0.00,CLR,,0.00,WeatherDisplay:10.37,2013-02-23 09:17:00,
2013-02-23 04:22:00,29.2,27.4,29.79,WSW,254,10.4,10.4,93,0.00,CLR,,0.00,WeatherDisplay:10.37,2013-02-23 09:22:00,
2013-02-23 04:27:00,29.2,27.4,29.79,WNW,286,10.4,10.4,93,0.00,CLR,,0.00,WeatherDisplay:10.37,2013-02-23 09:27:00,
2013-02-23 04:32:00,29.2,27.4,29.79,WSW,248,10.4,10.4,93,0.00,CLR,,0.00,WeatherDisplay:10.37,2013-02-23 09:32:00,
2013-02-23 04:37:00,29.1,27.3,29.79,West,260,13.8,13.8,93,0.00,CLR,,0.00,WeatherDisplay:10.37,2013-02-23 09:37:00,
2013-02-23 04:42:00,29.1,27.3,29.79,WSW,252,10.4,10.4,93,0.00,CLR,,0.00,WeatherDisplay:10.37,2013-02-23 09:42:00,
2013-02-23 04:47:00,29.0,27.2,29.79,West,263,3.5,3.5,93,0.00,CLR,,0.00,WeatherDisplay:10.37,2013-02-23 09:47:00,
2013-02-23 04:52:00,28.9,27.1,29.80,WSW,257,9.2,9.2,93,0.00,CLR,,0.00,WeatherDisplay:10.37,2013-02-23 09:52:00,
2013-02-23 04:57:00,28.9,27.4,29.80,West,263,5.8,5.8,94,0.00,CLR,,0.00,WeatherDisplay:10.37,2013-02-23 09:57:00,
2013-02-23 05:02:00,28.8,27.3,29.80,WSW,252,6.9,6.9,94,0.00,CLR,,0.00,WeatherDisplay:10.37,2013-02-23 10:02:00,
2013-02-23 05:07:00,28.8,27.3,29.80,WSW,254,4.6,4.6,94,0.00,CLR,,0.00,WeatherDisplay:10.37,2013-02-23 10:07:00,
2013-02-23 05:12:00,28.7,27.2,29.80,West,259,11.5,11.5,94,0.00,CLR,,0.00,WeatherDisplay:10.37,2013-02-23 10:12:00,
2013-02-23 05:17:00,28.7,27.2,29.79,WSW,252,5.8,5.8,94,0.00,CLR,,0.00,WeatherDisplay:10.37,2013-02-23 10:17:00,
2013-02-23 05:22:00,28.7,27.2,29.80,WNW,283,5.8,5.8,94,0.00,CLR,,0.00,WeatherDisplay:10.37,2013-02-23 10:22:00,
2013-02-23 05:27:00,28.6,27.1,29.80,WSW,249,4.6,4.6,94,0.00,CLR,,0.00,WeatherDisplay:10.37,2013-02-23 10:27:00,
2013-02-23 05:32:00,28.6,27.1,29.80,West,263,6.9,6.9,94,0.00,CLR,,0.00,WeatherDisplay:10.37,2013-02-23 10:32:00,
2013-02-23 05:37:00,28.6,27.1,29.80,West,264,5.8,5.8,94,0.00,CLR,,0.00,WeatherDisplay:10.37,2013-02-23 10:37:00,
2013-02-23 05:42:00,28.5,27.0,29.80,SW,235,9.2,9.2,94,0.00,CLR,,0.00,WeatherDisplay:10.37,2013-02-23 10:42:00,
2013-02-23 05:47:00,28.5,26.7,29.80,West,263,4.6,4.6,93,0.00,CLR,,0.00,WeatherDisplay:10.37,2013-02-23 10:47:00,
2013-02-23 05:52:00,28.5,26.7,29.80,WSW,257,4.6,4.6,93,0.00,CLR,,0.00,WeatherDisplay:10.37,2013-02-23 10:52:00,
2013-02-23 05:57:00,28.5,26.7,29.80,West,271,11.5,11.5,93,0.00,CLR,,0.00,WeatherDisplay:10.37,2013-02-23 10:57:00,
2013-02-23 06:02:00,28.4,26.6,29.80,West,265,5.8,5.8,93,0.00,CLR,,0.00,WeatherDisplay:10.37,2013-02-23 11:02:00,
2013-02-23 06:07:00,28.4,26.6,29.80,West,261,3.5,4.7,93,0.00,CLR,,0.00,WeatherDisplay:10.37,2013-02-23 11:07:00,
2013-02-23 06:12:00,28.3,26.5,29.80,WSW,257,11.5,11.5,93,0.00,CLR,,0.00,WeatherDisplay:10.37,2013-02-23 11:12:00,
2013-02-23 06:17:00,28.3,26.5,29.80,WSW,254,4.6,4.6,93,0.00,CLR,,0.00,WeatherDisplay:10.37,2013-02-23 11:17:00,
2013-02-23 06:22:00,28.3,26.3,29.80,WSW,249,9.2,9.2,92,0.00,CLR,,0.00,WeatherDisplay:10.37,2013-02-23 11:22:00,
2013-02-23 06:28:00,28.2,26.4,29.80,West,274,10.4,10.4,93,0.00,CLR,,0.00,WeatherDisplay:10.37,2013-02-23 11:28:00,
2013-02-23 06:33:00,28.2,26.2,29.80,WSW,243,4.0,4.0,92,0.00,CLR,,0.00,WeatherDisplay:10.37,2013-02-23 11:33:00,
2013-02-23 06:38:00,28.1,26.3,29.80,WSW,253,3.5,3.5,93,0.00,CLR,,0.00,WeatherDisplay:10.37,2013-02-23 11:38:00,
2013-02-23 06:43:00,28.0,26.2,29.81,WSW,252,10.4,10.4,93,0.00,CLR,,0.00,WeatherDisplay:10.37,2013-02-23 11:43:00,
2013-02-23 06:48:00,27.9,26.1,29.81,WSW,244,8.0,8.0,93,0.00,CLR,,0.00,WeatherDisplay:10.37,2013-02-23 11:48:00,
2013-02-23 06:53:00,27.9,26.1,29.80,West,264,11.5,11.5,93,0.00,CLR,,0.00,WeatherDisplay:10.37,2013-02-23 11:53:00,
2013-02-23 06:58:00,27.8,26.0,29.80,WSW,257,3.5,3.5,93,0.00,CLR,,0.00,WeatherDisplay:10.37,2013-02-23 11:58:00,
2013-02-23 07:03:00,27.8,26.0,29.81,SW,219,6.9,6.9,93,0.00,CLR,,0.00,WeatherDisplay:10.37,2013-02-23 12:03:00,
2013-02-23 07:08:00,27.8,26.0,29.80,West,264,5.8,5.8,93,0.00,CLR,,0.00,WeatherDisplay:10.37,2013-02-23 12:08:00,
2013-02-23 07:13:00,27.7,25.9,29.80,WSW,250,3.5,3.5,93,0.00,CLR,,0.00,WeatherDisplay:10.37,2013-02-23 12:13:00,
2013-02-23 07:18:00,27.7,25.9,29.81,West,259,6.9,6.9,93,0.00,CLR,,0.00,WeatherDisplay:10.37,2013-02-23 12:18:00,
2013-02-23 07:23:00,27.6,25.8,29.81,West,276,9.2,9.2,93,0.00,CLR,,0.00,WeatherDisplay:10.37,2013-02-23 12:23:00,
2013-02-23 07:28:00,27.6,25.8,29.81,West,269,0.0,0.0,93,0.00,CLR,,0.00,WeatherDisplay:10.37,2013-02-23 12:28:00,
2013-02-23 07:33:00,27.6,25.8,29.81,West,271,3.0,3.0,93,0.00,CLR,,0.00,WeatherDisplay:10.37,2013-02-23 12:33:00,
2013-02-23 07:38:00,27.5,25.7,29.81,SW,230,3.5,3.5,93,0.00,CLR,,0.00,WeatherDisplay:10.37,2013-02-23 12:38:00,
2013-02-23 07:43:00,27.5,25.7,29.81,WSW,238,9.2,9.2,93,0.00,,,0.00,WeatherDisplay:10.37,2013-02-23 12:43:00,
2013-02-23 07:48:00,27.5,25.7,29.81,WSW,249,8.1,8.1,93,0.00,CLR,,0.00,WeatherDisplay:10.37,2013-02-23 12:48:00,
2013-02-23 07:53:00,27.4,25.6,29.81,WSW,252,9.2,9.2,93,0.00,CLR,,0.00,WeatherDisplay:10.37,2013-02-23 12:53:00,
2013-02-23 07:58:00,27.4,25.6,29.81,WNW,287,12.7,12.7,93,0.00,CLR,,0.00,WeatherDisplay:10.37,2013-02-23 12:58:00,
2013-02-23 08:03:00,27.4,25.6,29.81,West,263,11.5,11.5,93,0.00,CLR,,0.00,WeatherDisplay:10.37,2013-02-23 13:03:00,
2013-02-23 08:08:00,27.5,25.7,29.81,WSW,242,3.5,3.5,93,0.00,CLR,,0.00,WeatherDisplay:10.37,2013-02-23 13:08:00,
2013-02-23 08:13:00,27.5,25.7,29.81,West,280,6.9,6.9,93,0.00,CLR,,0.00,WeatherDisplay:10.37,2013-02-23 13:13:00,
2013-02-23 08:18:00,27.5,25.7,29.80,WSW,248,6.9,6.9,93,0.00,CLR,,0.00,WeatherDisplay:10.37,2013-02-23 13:18:00,
2013-02-23 08:23:00,27.5,25.7,29.81,West,259,10.4,10.4,93,0.00,CLR,,0.00,WeatherDisplay:10.37,2013-02-23 13:23:00,
2013-02-23 08:28:00,27.5,25.7,29.81,West,265,3.5,3.5,93,0.00,CLR,,0.00,WeatherDisplay:10.37,2013-02-23 13:28:00,
2013-02-23 08:33:00,27.5,25.7,29.81,WSW,253,3.5,0.0,93,0.00,CLR,,0.00,WeatherDisplay:10.37,2013-02-23 13:33:00,
2013-02-23 08:38:00,27.5,25.7,29.81,West,264,9.2,9.2,93,0.00,CLR,,0.00,WeatherDisplay:10.37,2013-02-23 13:38:00,
2013-02-23 08:43:00,27.5,25.5,29.81,West,263,11.5,11.5,92,0.00,CLR,,0.00,WeatherDisplay:10.37,2013-02-23 13:43:00,
2013-02-23 08:48:00,27.7,25.7,29.81,WSW,257,4.6,4.7,92,0.00,CLR,,0.00,WeatherDisplay:10.37,2013-02-23 13:48:00,
2013-02-23 08:53:00,27.9,25.9,29.81,North,350,10.4,10.4,92,0.00,CLR,,0.00,WeatherDisplay:10.37,2013-02-23 13:53:00,
2013-02-23 08:58:00,28.0,26.0,29.81,West,263,11.5,11.5,92,0.00,CLR,,0.00,WeatherDisplay:10.37,2013-02-23 13:58:00,
2013-02-23 09:03:00,28.2,26.2,29.81,West,275,11.5,11.5,92,0.00,CLR,,0.00,WeatherDisplay:10.37,2013-02-23 14:03:00,
2013-02-23 09:08:00,28.3,26.3,29.81,WSW,254,5.0,5.0,92,0.00,CLR,,0.00,WeatherDisplay:10.37,2013-02-23 14:08:00,
2013-02-23 09:13:00,28.5,26.5,29.81,WSW,257,11.5,11.5,92,0.00,CLR,,0.00,WeatherDisplay:10.37,2013-02-23 14:13:00,
2013-02-23 09:18:00,28.6,26.6,29.81,WSW,257,3.5,0.0,92,0.00,CLR,,0.00,WeatherDisplay:10.37,2013-02-23 14:18:00,
2013-02-23 09:23:00,28.7,26.7,29.81,WSW,245,4.6,4.6,92,0.00,CLR,,0.00,WeatherDisplay:10.37,2013-02-23 14:23:00,
2013-02-23 09:28:00,28.7,26.4,29.81,West,273,11.5,11.5,91,0.00,CLR,,0.00,WeatherDisplay:10.37,2013-02-23 14:28:00,
2013-02-23 09:33:00,28.7,26.7,29.81,West,271,3.5,3.5,92,0.00,CLR,,0.00,WeatherDisplay:10.37,2013-02-23 14:33:00,
2013-02-23 09:38:00,28.6,26.6,29.81,WNW,296,6.9,6.9,92,0.00,CLR,,0.00,WeatherDisplay:10.37,2013-02-23 14:38:00,
2013-02-23 09:43:00,28.6,26.6,29.81,WSW,248,5.8,5.8,92,0.00,CLR,,0.00,WeatherDisplay:10.37,2013-02-23 14:43:00,
2013-02-23 09:48:00,28.7,26.4,29.81,WNW,286,5.8,5.8,91,0.00,CLR,,0.00,WeatherDisplay:10.37,2013-02-23 14:48:00,
2013-02-23 09:53:00,28.7,26.4,29.81,West,267,5.8,5.8,91,0.00,CLR,,0.00,WeatherDisplay:10.37,2013-02-23 14:53:00,
2013-02-23 09:58:00,28.7,26.4,29.81,WSW,242,6.0,6.0,91,0.00,CLR,,0.00,WeatherDisplay:10.37,2013-02-23 14:58:00,
2013-02-23 10:03:00,28.8,26.5,29.81,West,275,10.4,10.4,91,0.00,CLR,,0.00,WeatherDisplay:10.37,2013-02-23 15:03:00,
2013-02-23 10:08:00,28.8,26.5,29.81,WSW,252,4.6,4.6,91,0.00,CLR,,0.00,WeatherDisplay:10.37,2013-02-23 15:08:00,
2013-02-23 10:13:00,28.9,26.6,29.81,WSW,248,10.4,10.4,91,0.00,CLR,,0.00,WeatherDisplay:10.37,2013-02-23 15:13:00,
2013-02-23 10:18:00,29.2,26.9,29.81,WSW,243,7.0,7.0,91,0.00,CLR,,0.00,WeatherDisplay:10.37,2013-02-23 15:18:00,
2013-02-23 10:23:00,29.2,26.9,29.81,WNW,292,4.6,4.6,91,0.00,CLR,,0.00,WeatherDisplay:10.37,2013-02-23 15:23:00,
2013-02-23 10:28:00,29.4,27.1,29.81,West,280,4.6,4.6,91,0.00,CLR,,0.00,WeatherDisplay:10.37,2013-02-23 15:28:00,
2013-02-23 10:33:00,29.5,27.2,29.81,West,268,6.9,6.9,91,0.00,CLR,,0.00,WeatherDisplay:10.37,2013-02-23 15:33:00,
2013-02-23 10:38:00,29.8,27.5,29.81,WSW,255,11.0,11.0,91,0.00,CLR,,0.00,WeatherDisplay:10.37,2013-02-23 15:38:00,
2013-02-23 10:43:00,29.8,27.2,29.81,NW,306,5.0,5.0,90,0.00,CLR,,0.00,WeatherDisplay:10.37,2013-02-23 15:43:00,
2013-02-23 10:48:00,30.0,27.4,29.81,WSW,242,9.2,9.2,90,0.00,CLR,,0.00,WeatherDisplay:10.37,2013-02-23 15:48:00,
2013-02-23 10:53:00,30.1,27.5,29.81,WSW,254,7.0,7.0,90,0.00,CLR,,0.00,WeatherDisplay:10.37,2013-02-23 15:53:00,
2013-02-23 10:58:00,30.1,27.5,29.81,WNW,284,9.2,9.2,90,0.00,CLR,,0.00,WeatherDisplay:10.37,2013-02-23 15:58:00,
2013-02-23 11:03:00,30.0,27.2,29.81,NW,305,6.9,6.9,89,0.00,CLR,,0.00,WeatherDisplay:10.37,2013-02-23 16:03:00,
2013-02-23 11:08:00,30.1,27.3,29.81,West,269,6.9,7.4,89,0.00,CLR,,0.00,WeatherDisplay:10.37,2013-02-23 16:08:00,
2013-02-23 11:13:00,30.1,27.3,29.81,NW,306,11.5,11.5,89,0.00,CLR,,0.00,WeatherDisplay:10.37,2013-02-23 16:13:00,
2013-02-23 11:18:00,30.2,27.3,29.81,WNW,292,3.5,3.5,89,0.00,CLR,,0.00,WeatherDisplay:10.37,2013-02-23 16:18:00,
2013-02-23 11:23:00,30.4,27.5,29.81,West,277,5.0,5.0,89,0.00,CLR,,0.00,WeatherDisplay:10.37,2013-02-23 16:23:00,
2013-02-23 11:28:00,30.5,27.4,29.81,WNW,284,11.5,11.5,88,0.00,CLR,,0.00,WeatherDisplay:10.37,2013-02-23 16:28:00,
2013-02-23 11:33:00,31.0,27.6,29.81,WNW,300,11.5,11.5,87,0.00,CLR,,0.00,WeatherDisplay:10.37,2013-02-23 16:33:00,
2013-02-23 11:38:00,31.2,26.9,29.81,NW,304,11.5,11.5,84,0.00,CLR,,0.00,WeatherDisplay:10.37,2013-02-23 16:38:00,
2013-02-23 11:43:00,31.5,26.9,29.81,West,267,11.0,11.0,83,0.00,CLR,,0.00,WeatherDisplay:10.37,2013-02-23 16:43:00,
2013-02-23 11:48:00,31.2,26.6,29.81,West,277,11.0,11.0,83,0.00,CLR,,0.00,WeatherDisplay:10.37,2013-02-23 16:48:00,
2013-02-23 11:53:00,30.8,26.2,29.81,NW,323,15.0,15.0,83,0.00,CLR,,0.00,WeatherDisplay:10.37,2013-02-23 16:53:00,
2013-02-23 11:58:00,30.8,26.2,29.81,NNW,329,10.4,10.4,83,0.00,CLR,,0.00,WeatherDisplay:10.37,2013-02-23 16:58:00,
2013-02-23 12:03:00,30.9,26.3,29.81,NW,310,6.9,6.9,83,0.00,CLR,,0.00,WeatherDisplay:10.37,2013-02-23 17:03:00,
2013-02-23 12:08:00,30.9,26.1,29.81,NW,307,10.4,10.4,82,0.00,CLR,,0.00,WeatherDisplay:10.37,2013-02-23 17:08:00,
2013-02-23 12:13:00,30.7,25.9,29.81,WNW,303,10.4,10.4,82,0.00,CLR,,0.00,WeatherDisplay:10.37,2013-02-23 17:13:00,
2013-02-23 12:18:00,30.5,25.7,29.81,WNW,300,13.8,13.8,82,0.00,CLR,,0.00,WeatherDisplay:10.37,2013-02-23 17:18:00,
2013-02-23 12:23:00,30.5,25.7,29.81,WNW,288,12.7,12.7,82,0.00,CLR,,0.00,WeatherDisplay:10.37,2013-02-23 17:23:00,
2013-02-23 12:28:00,30.6,25.8,29.81,NW,317,6.0,6.0,82,0.00,CLR,,0.00,WeatherDisplay:10.37,2013-02-23 17:28:00,
2013-02-23 12:33:00,30.8,26.0,29.81,WNW,286,11.5,11.5,82,0.00,CLR,,0.00,WeatherDisplay:10.37,2013-02-23 17:33:00,
2013-02-23 12:38:00,30.9,25.8,29.81,West,265,12.7,12.7,81,0.00,CLR,,0.00,WeatherDisplay:10.37,2013-02-23 17:38:00,
2013-02-23 12:43:00,30.8,25.7,29.81,West,269,8.1,8.1,81,0.00,CLR,,0.00,WeatherDisplay:10.37,2013-02-23 17:43:00,
2013-02-23 12:48:00,30.8,25.4,29.81,NW,310,9.2,9.2,80,0.00,CLR,,0.00,WeatherDisplay:10.37,2013-02-23 17:48:00,
2013-02-23 12:53:00,31.0,24.6,29.81,West,264,15.0,15.0,77,0.00,CLR,,0.00,WeatherDisplay:10.37,2013-02-23 17:53:00,
2013-02-23 12:58:00,31.0,24.6,29.81,WNW,290,11.5,11.5,77,0.00,CLR,,0.00,WeatherDisplay:10.37,2013-02-23 17:58:00,
2013-02-23 13:03:00,31.0,24.6,29.81,West,275,5.8,5.8,77,0.00,CLR,,0.01,WeatherDisplay:10.37,2013-02-23 18:03:00,
2013-02-23 13:08:00,30.9,24.2,29.81,WNW,291,12.7,12.7,76,0.01,RA,,0.01,WeatherDisplay:10.37,2013-02-23 18:08:00,
2013-02-23 13:13:00,30.8,24.4,29.81,WNW,301,9.2,9.2,77,0.01,RA,,0.01,WeatherDisplay:10.37,2013-02-23 18:13:00,
2013-02-23 13:18:00,30.8,24.4,29.81,WNW,302,4.6,4.6,77,0.01,CLR,,0.01,WeatherDisplay:10.37,2013-02-23 18:18:00,
2013-02-23 13:23:00,30.9,23.9,29.81,NW,326,13.8,13.8,75,0.01,CLR,,0.01,WeatherDisplay:10.37,2013-02-23 18:23:00,
2013-02-23 13:28:00,30.9,23.9,29.81,NNW,329,15.0,15.0,75,0.01,CLR,,0.01,WeatherDisplay:10.37,2013-02-23 18:28:00,
2013-02-23 13:33:00,30.8,24.4,29.81,West,265,5.0,5.0,77,0.01,CLR,,0.01,WeatherDisplay:10.37,2013-02-23 18:33:00,
2013-02-23 13:38:00,31.0,24.6,29.81,West,267,5.8,5.8,77,0.01,CLR,,0.01,WeatherDisplay:10.37,2013-02-23 18:38:00,
2013-02-23 13:43:00,31.4,24.4,29.81,West,267,11.5,11.5,75,0.01,CLR,,0.01,WeatherDisplay:10.37,2013-02-23 18:43:00,
2013-02-23 13:48:00,31.5,24.8,29.81,West,280,9.0,9.0,76,0.01,CLR,,0.01,WeatherDisplay:10.37,2013-02-23 18:48:00,
2013-02-23 13:53:00,31.4,24.1,29.81,WNW,286,9.2,9.2,74,0.02,RA,,0.02,WeatherDisplay:10.37,2013-02-23 18:53:00,
2013-02-23 13:58:00,31.3,24.0,29.81,WNW,296,8.1,8.1,74,0.02,RA,,0.02,WeatherDisplay:10.37,2013-02-23 18:58:00,
2013-02-23 14:03:00,31.2,24.5,29.81,WNW,284,13.0,13.0,76,0.02,CLR,,0.02,WeatherDisplay:10.37,2013-02-23 19:03:00,
2013-02-23 14:08:00,31.0,23.7,29.81,NW,314,11.5,11.5,74,0.01,CLR,,0.02,WeatherDisplay:10.37,2013-02-23 19:08:00,
2013-02-23 14:13:00,31.0,23.7,29.81,NW,317,6.9,6.9,74,0.01,CLR,,0.02,WeatherDisplay:10.37,2013-02-23 19:13:00,
2013-02-23 14:18:00,31.0,24.0,29.81,WNW,289,6.9,6.9,75,0.01,CLR,,0.02,WeatherDisplay:10.37,2013-02-23 19:18:00,
2013-02-23 14:23:00,30.9,23.9,29.81,WSW,241,5.8,5.8,75,0.01,CLR,,0.02,WeatherDisplay:10.37,2013-02-23 19:23:00,
2013-02-23 14:28:00,30.7,24.0,29.81,WNW,298,5.8,5.8,76,0.01,CLR,,0.02,WeatherDisplay:10.37,2013-02-23 19:28:00,
2013-02-23 14:33:00,30.7,24.0,29.81,WNW,300,2.0,2.7,76,0.01,CLR,,0.02,WeatherDisplay:10.37,2013-02-23 19:33:00,
2013-02-23 14:38:00,30.9,24.2,29.80,WNW,292,4.0,4.1,76,0.01,CLR,,0.02,WeatherDisplay:10.37,2013-02-23 19:38:00,
2013-02-23 14:43:00,31.0,24.0,29.80,WNW,291,6.9,6.9,75,0.01,CLR,,0.02,WeatherDisplay:10.37,2013-02-23 19:43:00,
2013-02-23 14:48:00,31.1,24.1,29.80,NW,311,4.0,4.0,75,0.01,CLR,,0.02,WeatherDisplay:10.37,2013-02-23 19:48:00,
2013-02-23 14:53:00,31.1,24.1,29.80,WNW,294,9.2,9.2,75,0.00,CLR,,0.02,WeatherDisplay:10.37,2013-02-23 19:53:00,
2013-02-23 14:58:00,31.1,24.1,29.80,WNW,290,13.8,13.8,75,0.00,CLR,,0.02,WeatherDisplay:10.37,2013-02-23 19:58:00,
2013-02-23 15:03:00,31.0,24.3,29.80,NW,310,10.4,10.4,76,0.00,CLR,,0.02,WeatherDisplay:10.37,2013-02-23 20:03:00,
2013-02-23 15:08:00,30.8,24.1,29.80,WNW,303,11.5,11.5,76,0.00,CLR,,0.02,WeatherDisplay:10.37,2013-02-23 20:08:00,
2013-02-23 15:13:00,30.9,24.2,29.80,NW,308,10.4,10.4,76,0.00,CLR,,0.02,WeatherDisplay:10.37,2013-02-23 20:13:00,
2013-02-23 15:18:00,30.9,24.2,29.80,WNW,290,5.8,6.6,76,0.00,CLR,,0.02,WeatherDisplay:10.37,2013-02-23 20:18:00,
2013-02-23 15:23:00,31.0,24.3,29.80,West,276,10.4,10.4,76,0.00,CLR,,0.02,WeatherDisplay:10.37,2013-02-23 20:23:00,
2013-02-23 15:28:00,31.0,24.3,29.80,WNW,295,4.6,4.6,76,0.00,CLR,,0.02,WeatherDisplay:10.37,2013-02-23 20:28:00,
2013-02-23 15:33:00,31.4,24.7,29.80,North,355,2.3,2.3,76,0.00,CLR,,0.02,WeatherDisplay:10.37,2013-02-23 20:33:00,
2013-02-23 15:38:00,31.4,24.4,29.80,WNW,295,3.5,3.5,75,0.00,CLR,,0.02,WeatherDisplay:10.37,2013-02-23 20:38:00,
2013-02-23 15:43:00,30.9,23.9,29.80,WNW,302,13.8,13.8,75,0.00,CLR,,0.02,WeatherDisplay:10.37,2013-02-23 20:43:00,
2013-02-23 15:48:00,30.5,24.5,29.80,WNW,303,5.8,5.8,78,0.00,CLR,,0.02,WeatherDisplay:10.37,2013-02-23 20:48:00,
2013-02-23 15:53:00,29.9,24.8,29.80,WSW,239,9.2,9.2,81,0.00,CLR,,0.02,WeatherDisplay:10.37,2013-02-23 20:53:00,
2013-02-23 15:58:00,29.5,25.0,29.80,West,269,3.5,3.5,83,0.00,CLR,,0.02,WeatherDisplay:10.37,2013-02-23 20:58:00,
2013-02-23 16:03:00,29.5,25.3,29.80,West,259,3.5,0.0,84,0.00,CLR,,0.02,WeatherDisplay:10.37,2013-02-23 21:03:00,
2013-02-23 16:08:00,29.8,25.3,29.80,WSW,251,3.5,3.5,83,0.00,CLR,,0.02,WeatherDisplay:10.37,2013-02-23 21:08:00,
2013-02-23 16:13:00,30.2,25.1,29.80,WSW,254,3.5,3.5,81,0.00,CLR,,0.02,WeatherDisplay:10.37,2013-02-23 21:13:00,
2013-02-23 16:18:00,30.5,24.1,29.80,SW,234,11.5,11.5,77,0.00,CLR,,0.02,WeatherDisplay:10.37,2013-02-23 21:18:00,
2013-02-23 16:23:00,30.7,24.0,29.80,WSW,247,10.4,10.4,76,0.00,CLR,,0.02,WeatherDisplay:10.37,2013-02-23 21:23:00,
2013-02-23 16:28:00,30.4,24.4,29.81,WNW,282,14.0,14.0,78,0.00,CLR,,0.02,WeatherDisplay:10.37,2013-02-23 21:28:00,
2013-02-23 16:33:00,29.4,24.3,29.81,West,271,11.5,11.5,81,0.00,CLR,,0.02,WeatherDisplay:10.37,2013-02-23 21:33:00,
2013-02-23 16:38:00,28.9,24.4,29.81,NW,305,3.5,3.5,83,0.00,CLR,,0.02,WeatherDisplay:10.37,2013-02-23 21:38:00,
2013-02-23 16:43:00,29.0,24.5,29.81,West,268,7.0,7.0,83,0.00,CLR,,0.02,WeatherDisplay:10.37,2013-02-23 21:43:00,
2013-02-23 16:48:00,29.0,24.5,29.81,West,266,11.5,11.5,83,0.00,CLR,,0.02,WeatherDisplay:10.37,2013-02-23 21:48:00,
2013-02-23 16:53:00,28.7,24.5,29.81,West,280,11.5,11.5,84,0.00,CLR,,0.02,WeatherDisplay:10.37,2013-02-23 21:53:00,
2013-02-23 16:58:00,28.6,24.4,29.82,West,278,8.0,8.0,84,0.00,CLR,,0.02,WeatherDisplay:10.37,2013-02-23 21:58:00,
2013-02-23 17:03:00,28.6,24.4,29.82,West,276,9.2,9.2,84,0.00,CLR,,0.02,WeatherDisplay:10.37,2013-02-23 22:03:00,
2013-02-23 17:08:00,28.7,24.8,29.82,West,281,10.4,10.4,85,0.00,CLR,,0.02,WeatherDisplay:10.37,2013-02-23 22:08:00,
2013-02-23 17:13:00,28.7,24.5,29.82,West,273,9.2,9.2,84,0.00,CLR,,0.02,WeatherDisplay:10.37,2013-02-23 22:13:00,
2013-02-23 17:18:00,28.7,24.5,29.82,WNW,294,6.9,6.9,84,0.00,CLR,,0.02,WeatherDisplay:10.37,2013-02-23 22:18:00,
2013-02-23 17:23:00,28.7,24.2,29.82,WSW,254,3.5,0.0,83,0.00,CLR,,0.02,WeatherDisplay:10.37,2013-02-23 22:23:00,
2013-02-23 17:28:00,28.7,23.9,29.82,WSW,256,5.8,5.8,82,0.00,CLR,,0.02,WeatherDisplay:10.37,2013-02-23 22:28:00,
2013-02-23 17:33:00,28.7,23.6,29.82,West,278,10.0,10.0,81,0.00,CLR,,0.02,WeatherDisplay:10.37,2013-02-23 22:33:00,
2013-02-23 17:38:00,28.8,23.7,29.82,West,262,3.5,3.5,81,0.00,CLR,,0.02,WeatherDisplay:10.37,2013-02-23 22:38:00,
2013-02-23 17:43:00,28.8,24.0,29.82,West,281,4.0,4.0,82,0.00,CLR,,0.02,WeatherDisplay:10.37,2013-02-23 22:43:00,
2013-02-23 17:48:00,28.7,23.9,29.83,WSW,240,5.8,5.8,82,0.00,CLR,,0.02,WeatherDisplay:10.37,2013-02-23 22:48:00,
2013-02-23 17:53:00,28.6,23.8,29.83,West,279,3.5,3.5,82,0.00,CLR,,0.02,WeatherDisplay:10.37,2013-02-23 22:53:00,
2013-02-23 17:58:00,28.4,23.9,29.83,NW,309,12.0,12.0,83,0.00,CLR,,0.02,WeatherDisplay:10.37,2013-02-23 22:58:00,
2013-02-23 18:03:00,28.2,24.0,29.83,West,280,6.9,6.9,84,0.01,RA,,0.03,WeatherDisplay:10.37,2013-02-23 23:03:00,
2013-02-23 18:08:00,28.1,24.2,29.83,WNW,299,6.9,6.9,85,0.01,RA,,0.03,WeatherDisplay:10.37,2013-02-23 23:08:00,
2013-02-23 18:13:00,27.8,24.2,29.83,West,264,5.8,5.8,86,0.01,CLR,,0.03,WeatherDisplay:10.37,2013-02-23 23:13:00,
2013-02-23 18:18:00,27.6,24.0,29.83,NW,308,4.6,4.6,86,0.01,CLR,,0.03,WeatherDisplay:10.37,2013-02-23 23:18:00,
2013-02-23 18:23:00,27.5,23.9,29.83,WNW,300,5.8,5.8,86,0.01,CLR,,0.03,WeatherDisplay:10.37,2013-02-23 23:23:00,
2013-02-23 18:28:00,27.6,24.0,29.83,West,263,4.0,4.0,86,0.01,CLR,,0.03,WeatherDisplay:10.37,2013-02-23 23:28:00,
2013-02-23 18:33:00,27.6,23.7,29.84,WSW,239,5.8,5.8,85,0.01,CLR,,0.03,WeatherDisplay:10.37,2013-02-23 23:33:00,
2013-02-23 18:38:00,27.6,23.7,29.83,WSW,255,2.3,0.0,85,0.01,CLR,,0.03,WeatherDisplay:10.37,2013-02-23 23:38:00,
2013-02-23 18:43:00,27.6,24.0,29.84,WSW,245,7.0,7.0,86,0.01,CLR,,0.03,WeatherDisplay:10.37,2013-02-23 23:43:00,
2013-02-23 18:48:00,27.5,23.9,29.84,WSW,256,1.0,1.0,86,0.01,CLR,,0.03,WeatherDisplay:10.37,2013-02-23 23:48:00,
2013-02-23 18:53:00,27.5,23.9,29.84,West,275,7.0,7.0,86,0.01,CLR,,0.03,WeatherDisplay:10.37,2013-02-23 23:53:00,
2013-02-23 18:58:00,27.6,24.0,29.84,West,260,3.5,3.5,86,0.01,CLR,,0.03,WeatherDisplay:10.37,2013-02-23 23:58:00,
2013-02-23 19:03:00,27.6,24.0,29.84,SW,225,5.8,5.8,86,0.00,CLR,,0.03,WeatherDisplay:10.37,2013-02-24 00:03:00,
2013-02-23 19:08:00,27.6,24.0,29.84,West,265,5.0,5.0,86,0.00,CLR,,0.03,WeatherDisplay:10.37,2013-02-24 00:08:00,
2013-02-23 19:13:00,27.6,24.0,29.84,WSW,253,3.5,3.5,86,0.00,CLR,,0.03,WeatherDisplay:10.37,2013-02-24 00:13:00,
2013-02-23 19:18:00,27.6,23.7,29.84,WSW,240,4.0,4.0,85,0.00,CLR,,0.03,WeatherDisplay:10.37,2013-02-24 00:18:00,
2013-02-23 19:23:00,27.7,23.8,29.85,WSW,256,3.0,3.0,85,0.00,CLR,,0.03,WeatherDisplay:10.37,2013-02-24 00:23:00,
2013-02-23 19:28:00,27.7,23.8,29.85,WSW,242,5.8,5.8,85,0.00,CLR,,0.03,WeatherDisplay:10.37,2013-02-24 00:28:00,
2013-02-23 19:33:00,27.7,23.5,29.84,WSW,248,10.4,10.4,84,0.00,CLR,,0.03,WeatherDisplay:10.37,2013-02-24 00:33:00,
2013-02-23 19:38:00,27.6,23.4,29.84,WSW,252,6.9,6.9,84,0.00,CLR,,0.03,WeatherDisplay:10.37,2013-02-24 00:38:00,
2013-02-23 19:43:00,27.6,23.4,29.84,West,281,2.3,2.3,84,0.00,CLR,,0.03,WeatherDisplay:10.37,2013-02-24 00:43:00,
2013-02-23 19:48:00,27.5,23.3,29.84,WSW,247,10.4,10.4,84,0.00,CLR,,0.03,WeatherDisplay:10.37,2013-02-24 00:48:00,
2013-02-23 19:53:00,27.4,23.5,29.85,WSW,257,6.0,6.0,85,0.00,CLR,,0.03,WeatherDisplay:10.37,2013-02-24 00:53:00,
2013-02-23 19:58:00,27.4,23.5,29.85,West,259,5.8,5.8,85,0.00,CLR,,0.03,WeatherDisplay:10.37,2013-02-24 00:58:00,
2013-02-23 20:03:00,27.4,23.5,29.85,WSW,254,3.5,3.5,85,0.00,CLR,,0.03,WeatherDisplay:10.37,2013-02-24 01:03:00,
2013-02-23 20:08:00,27.3,23.4,29.85,WSW,257,3.0,3.0,85,0.00,CLR,,0.03,WeatherDisplay:10.37,2013-02-24 01:08:00,
2013-02-23 20:13:00,27.3,23.4,29.84,West,275,3.5,3.5,85,0.00,CLR,,0.03,WeatherDisplay:10.37,2013-02-24 01:13:00,
2013-02-23 20:18:00,27.3,23.4,29.85,West,279,9.2,9.2,85,0.00,CLR,,0.03,WeatherDisplay:10.37,2013-02-24 01:18:00,
2013-02-23 20:23:00,27.3,23.4,29.85,WSW,254,6.9,6.9,85,0.00,CLR,,0.03,WeatherDisplay:10.37,2013-02-24 01:23:00,
2013-02-23 20:28:00,27.2,23.6,29.85,WNW,287,3.5,3.5,86,0.00,CLR,,0.03,WeatherDisplay:10.37,2013-02-24 01:28:00,
2013-02-23 20:33:00,27.1,23.5,29.85,West,268,6.9,6.9,86,0.00,CLR,,0.03,WeatherDisplay:10.37,2013-02-24 01:33:00,
2013-02-23 20:38:00,27.0,23.4,29.85,West,267,4.0,4.0,86,0.00,CLR,,0.03,WeatherDisplay:10.37,2013-02-24 01:38:00,
2013-02-23 20:43:00,26.9,23.5,29.85,WNW,294,5.8,5.8,87,0.00,CLR,,0.03,WeatherDisplay:10.37,2013-02-24 01:43:00,
2013-02-23 20:48:00,26.8,23.4,29.85,West,279,6.9,6.9,87,0.00,CLR,,0.03,WeatherDisplay:10.37,2013-02-24 01:48:00,
2013-02-23 20:53:00,26.8,23.4,29.85,West,261,3.5,3.5,87,0.00,CLR,,0.03,WeatherDisplay:10.37,2013-02-24 01:53:00,
2013-02-23 20:58:00,26.7,23.4,29.85,West,277,9.2,0.0,87,0.00,CLR,,0.03,WeatherDisplay:10.37,2013-02-24 01:58:00,
2013-02-23 21:03:00,26.6,23.3,29.85,NW,308,5.0,5.0,87,0.00,CLR,,0.03,WeatherDisplay:10.37,2013-02-24 02:03:00,
2013-02-23 21:08:00,26.5,23.2,29.85,WNW,285,3.5,3.5,87,0.00,CLR,,0.03,WeatherDisplay:10.37,2013-02-24 02:08:00,
2013-02-23 21:13:00,26.5,23.2,29.85,West,279,8.1,8.1,87,0.00,CLR,,0.03,WeatherDisplay:10.37,2013-02-24 02:13:00,
2013-02-23 21:18:00,26.5,23.2,29.85,West,277,1.1,1.1,87,0.00,CLR,,0.03,WeatherDisplay:10.37,2013-02-24 02:18:00,
2013-02-23 21:23:00,26.3,23.2,29.85,WNW,292,3.5,3.5,88,0.00,CLR,,0.03,WeatherDisplay:10.37,2013-02-24 02:23:00,
2013-02-23 21:28:00,26.2,23.1,29.85,West,280,3.5,3.5,88,0.00,CLR,,0.03,WeatherDisplay:10.37,2013-02-24 02:28:00,
2013-02-23 21:33:00,26.2,23.1,29.85,West,281,3.5,3.5,88,0.00,CLR,,0.03,WeatherDisplay:10.37,2013-02-24 02:33:00,
2013-02-23 21:38:00,26.1,23.0,29.85,WNW,294,3.5,3.5,88,0.00,CLR,,0.03,WeatherDisplay:10.37,2013-02-24 02:38:00,
2013-02-23 21:43:00,26.1,23.0,29.85,West,270,4.0,4.0,88,0.00,CLR,,0.03,WeatherDisplay:10.37,2013-02-24 02:43:00,
2013-02-23 21:48:00,26.1,23.0,29.85,West,276,4.6,4.6,88,0.00,CLR,,0.03,WeatherDisplay:10.37,2013-02-24 02:48:00,
2013-02-23 21:53:00,26.1,23.3,29.85,West,275,2.3,2.3,89,0.00,CLR,,0.03,WeatherDisplay:10.37,2013-02-24 02:53:00,
2013-02-23 21:58:00,26.0,23.2,29.85,WNW,292,3.5,3.5,89,0.00,CLR,,0.03,WeatherDisplay:10.37,2013-02-24 02:58:00,
2013-02-23 22:03:00,26.0,23.2,29.85,WNW,292,3.0,3.0,89,0.00,CLR,,0.03,WeatherDisplay:10.37,2013-02-24 03:03:00,
2013-02-23 22:08:00,25.9,23.1,29.85,WNW,290,0.0,0.1,89,0.00,CLR,,0.03,WeatherDisplay:10.37,2013-02-24 03:08:00,
2013-02-23 22:13:00,25.9,23.4,29.85,West,262,5.8,5.8,90,0.00,CLR,,0.03,WeatherDisplay:10.37,2013-02-24 03:13:00,
2013-02-23 22:18:00,25.9,23.4,29.85,West,263,2.3,2.3,90,0.00,CLR,,0.03,WeatherDisplay:10.37,2013-02-24 03:18:00,
2013-02-23 22:23:00,25.8,23.3,29.85,West,265,2.3,2.3,90,0.00,CLR,,0.03,WeatherDisplay:10.37,2013-02-24 03:23:00,
2013-02-23 22:28:00,25.8,23.5,29.85,West,265,3.5,3.5,91,0.00,CLR,,0.03,WeatherDisplay:10.37,2013-02-24 03:28:00,
2013-02-23 22:33:00,25.8,23.5,29.85,West,267,3.5,3.5,91,0.00,CLR,,0.03,WeatherDisplay:10.37,2013-02-24 03:33:00,
2013-02-23 22:38:00,25.7,23.4,29.84,West,265,0.0,0.0,91,0.00,CLR,,0.03,WeatherDisplay:10.37,2013-02-24 03:38:00,
2013-02-23 22:43:00,25.7,23.4,29.84,West,269,4.6,4.6,91,0.00,CLR,,0.03,WeatherDisplay:10.37,2013-02-24 03:43:00,
2013-02-23 22:48:00,25.6,23.3,29.84,West,268,0.0,0.5,91,0.00,CLR,,0.03,WeatherDisplay:10.37,2013-02-24 03:48:00,
2013-02-23 22:53:00,25.6,23.3,29.84,WNW,296,1.1,0.0,91,0.00,CLR,,0.03,WeatherDisplay:10.37,2013-02-24 03:53:00,
2013-02-23 22:58:00,25.6,23.3,29.84,WNW,293,2.3,2.3,91,0.00,CLR,,0.03,WeatherDisplay:10.37,2013-02-24 03:58:00,
2013-02-23 23:03:00,25.6,23.3,29.84,WNW,292,2.0,2.0,91,0.00,CLR,,0.03,WeatherDisplay:10.37,2013-02-24 04:03:00,
2013-02-23 23:08:00,25.6,23.3,29.84,WNW,292,3.5,3.5,91,0.00,CLR,,0.03,WeatherDisplay:10.37,2013-02-24 04:08:00,
2013-02-23 23:13:00,25.6,23.3,29.84,WNW,290,3.5,3.5,91,0.00,CLR,,0.03,WeatherDisplay:10.37,2013-02-24 04:13:00,
2013-02-23 23:18:00,25.6,23.3,29.84,WNW,285,3.5,3.5,91,0.00,CLR,,0.03,WeatherDisplay:10.37,2013-02-24 04:18:00,
2013-02-23 23:23:00,25.6,23.3,29.84,WNW,286,0.0,0.0,91,0.00,CLR,,0.03,WeatherDisplay:10.37,2013-02-24 04:23:00,
2013-02-23 23:28:00,25.6,23.3,29.83,WNW,287,3.5,3.5,91,0.00,CLR,,0.03,WeatherDisplay:10.37,2013-02-24 04:28:00,
2013-02-23 23:33:00,25.5,23.5,29.83,WNW,288,2.0,2.0,92,0.00,CLR,,0.03,WeatherDisplay:10.37,2013-02-24 04:33:00,
2013-02-23 23:38:00,25.5,23.5,29.83,WNW,292,3.5,3.5,92,0.00,CLR,,0.03,WeatherDisplay:10.37,2013-02-24 04:38:00,
2013-02-23 23:43:00,25.5,23.5,29.83,WNW,289,0.0,0.0,92,0.00,CLR,,0.03,WeatherDisplay:10.37,2013-02-24 04:43:00,
2013-02-23 23:48:00,25.5,23.5,29.83,WNW,290,2.3,0.0,92,0.00,CLR,,0.03,WeatherDisplay:10.37,2013-02-24 04:48:00,
2013-02-23 23:53:00,25.4,23.4,29.83,WNW,290,0.0,0.0,92,0.00,CLR,,0.03,WeatherDisplay:10.37,2013-02-24 04:53:00,
2013-02-23 23:58:00,25.5,23.5,29.83,WNW,290,0.0,0.0,92,0.00,CLR,,0.03,WeatherDisplay:10.37,2013-02-24 04:58:00,